sensor_id;sensor_type;location;lat;lon;timestamp;pressure;altitude;pressure_sealevel;temperature;humidity
64668;BME280;51077;42.716;23.344;2023-04-12T00:01:02;94458.69;;;11.18;53.46
64668;BME280;51077;42.716;23.344;2023-04-12T00:03:27;94464.91;;;11.18;53.82
64668;BME280;51077;42.716;23.344;2023-04-12T00:05:53;94465.44;;;11.17;53.80
64668;BME280;51077;42.716;23.344;2023-04-12T00:08:19;94454.78;;;11.13;53.77
64668;BME280;51077;42.716;23.344;2023-04-12T00:10:51;94456.81;;;11.13;53.85
64668;BME280;51077;42.716;23.344;2023-04-12T00:13:19;94458.09;;;11.12;53.80
64668;BME280;51077;42.716;23.344;2023-04-12T00:15:45;94452.59;;;11.12;53.89
64668;BME280;51077;42.716;23.344;2023-04-12T00:18:10;94443.41;;;11.09;53.78
64668;BME280;51077;42.716;23.344;2023-04-12T00:20:36;94445.41;;;11.08;53.79
64668;BME280;51077;42.716;23.344;2023-04-12T00:23:01;94446.69;;;11.07;53.93
64668;BME280;51077;42.716;23.344;2023-04-12T00:25:27;94454.94;;;11.07;53.85
64668;BME280;51077;42.716;23.344;2023-04-12T00:27:52;94443.22;;;11.07;53.84
64668;BME280;51077;42.716;23.344;2023-04-12T00:30:18;94449.44;;;11.07;53.96
64668;BME280;51077;42.716;23.344;2023-04-12T00:32:43;94450.72;;;11.06;53.88
64668;BME280;51077;42.716;23.344;2023-04-12T00:35:08;94439.91;;;11.08;53.98
64668;BME280;51077;42.716;23.344;2023-04-12T00:37:34;94440.47;;;11.07;54.07
64668;BME280;51077;42.716;23.344;2023-04-12T00:40:01;94439.00;;;11.06;54.16
64668;BME280;51077;42.716;23.344;2023-04-12T00:42:27;94442.25;;;11.04;54.25
64668;BME280;51077;42.716;23.344;2023-04-12T00:44:52;94447.03;;;11.04;54.04
64668;BME280;51077;42.716;23.344;2023-04-12T00:47:18;94435.28;;;11.03;53.98
64668;BME280;51077;42.716;23.344;2023-04-12T00:49:44;94438.03;;;11.03;54.12
64668;BME280;51077;42.716;23.344;2023-04-12T00:52:11;94436.75;;;11.04;53.87
64668;BME280;51077;42.716;23.344;2023-04-12T00:54:40;94432.38;;;11.01;54.14
64668;BME280;51077;42.716;23.344;2023-04-12T00:57:06;94422.63;;;11.00;54.24
64668;BME280;51077;42.716;23.344;2023-04-12T00:59:31;94429.41;;;10.99;54.17
64668;BME280;51077;42.716;23.344;2023-04-12T01:01:58;94427.94;;;10.98;54.24
64668;BME280;51077;42.716;23.344;2023-04-12T01:04:24;94428.66;;;10.99;54.37
64668;BME280;51077;42.716;23.344;2023-04-12T01:12:07;94429.88;;;10.90;54.42
64668;BME280;51077;42.716;23.344;2023-04-12T01:17:18;94427.13;;;10.90;54.53
64668;BME280;51077;42.716;23.344;2023-04-12T01:19:55;94420.91;;;10.90;54.52
64668;BME280;51077;42.716;23.344;2023-04-12T01:25:03;94414.44;;;10.87;54.64
64668;BME280;51077;42.716;23.344;2023-04-12T01:27:47;94414.25;;;10.85;54.89
64668;BME280;51077;42.716;23.344;2023-04-12T01:30:16;94417.75;;;10.86;54.91
64668;BME280;51077;42.716;23.344;2023-04-12T01:32:44;94412.97;;;10.86;55.00
64668;BME280;51077;42.716;23.344;2023-04-12T01:35:12;94409.50;;;10.86;54.75
64668;BME280;51077;42.716;23.344;2023-04-12T01:37:40;94421.97;;;10.87;54.97
64668;BME280;51077;42.716;23.344;2023-04-12T01:40:06;94416.47;;;10.87;54.54
64668;BME280;51077;42.716;23.344;2023-04-12T01:42:33;94412.78;;;10.84;54.92
64668;BME280;51077;42.716;23.344;2023-04-12T01:44:59;94413.31;;;10.82;55.13
64668;BME280;51077;42.716;23.344;2023-04-12T01:47:26;94413.84;;;10.81;55.04
64668;BME280;51077;42.716;23.344;2023-04-12T01:52:35;94403.38;;;10.79;55.10
64668;BME280;51077;42.716;23.344;2023-04-12T01:55:04;94409.44;;;10.78;55.36
64668;BME280;51077;42.716;23.344;2023-04-12T01:57:32;94401.50;;;10.74;55.37
64668;BME280;51077;42.716;23.344;2023-04-12T01:59:58;94406.81;;;10.72;55.67
64668;BME280;51077;42.716;23.344;2023-04-12T02:02:27;94394.69;;;10.68;55.81
64668;BME280;51077;42.716;23.344;2023-04-12T02:04:53;94393.22;;;10.67;55.74
64668;BME280;51077;42.716;23.344;2023-04-12T02:07:19;94399.97;;;10.66;55.98
64668;BME280;51077;42.716;23.344;2023-04-12T02:09:45;94402.72;;;10.66;55.96
64668;BME280;51077;42.716;23.344;2023-04-12T02:12:11;94395.03;;;10.64;55.98
64668;BME280;51077;42.716;23.344;2023-04-12T02:14:37;94401.06;;;10.63;56.09
64668;BME280;51077;42.716;23.344;2023-04-12T02:17:02;94400.09;;;10.60;56.21
64668;BME280;51077;42.716;23.344;2023-04-12T02:19:28;94401.38;;;10.59;56.16
64668;BME280;51077;42.716;23.344;2023-04-12T02:21:54;94397.69;;;10.56;56.39
64668;BME280;51077;42.716;23.344;2023-04-12T02:24:19;94408.66;;;10.56;56.29
64668;BME280;51077;42.716;23.344;2023-04-12T02:26:45;94410.47;;;10.54;56.49
64668;BME280;51077;42.716;23.344;2023-04-12T02:29:13;94410.97;;;10.52;56.50
64668;BME280;51077;42.716;23.344;2023-04-12T02:31:39;94409.53;;;10.51;56.42
64668;BME280;51077;42.716;23.344;2023-04-12T02:34:05;94401.09;;;10.49;56.66
64668;BME280;51077;42.716;23.344;2023-04-12T02:36:31;94397.41;;;10.47;56.73
64668;BME280;51077;42.716;23.344;2023-04-12T02:38:56;94404.66;;;10.44;56.96
64668;BME280;51077;42.716;23.344;2023-04-12T02:41:23;94399.94;;;10.45;56.60
64668;BME280;51077;42.716;23.344;2023-04-12T02:43:49;94393.50;;;10.42;56.97
64668;BME280;51077;42.716;23.344;2023-04-12T02:46:20;94399.00;;;10.42;57.14
64668;BME280;51077;42.716;23.344;2023-04-12T02:48:46;94395.50;;;10.42;57.01
64668;BME280;51077;42.716;23.344;2023-04-12T02:51:12;94401.94;;;10.44;57.06
64668;BME280;51077;42.716;23.344;2023-04-12T02:53:37;94392.78;;;10.42;57.11
64668;BME280;51077;42.716;23.344;2023-04-12T02:56:04;94401.94;;;10.44;56.87
64668;BME280;51077;42.716;23.344;2023-04-12T02:58:30;94399.94;;;10.45;57.16
64668;BME280;51077;42.716;23.344;2023-04-12T03:00:56;94395.94;;;10.46;56.84
64668;BME280;51077;42.716;23.344;2023-04-12T03:03:24;94397.94;;;10.45;56.89
64668;BME280;51077;42.716;23.344;2023-04-12T03:05:51;94403.63;;;10.47;56.99
64668;BME280;51077;42.716;23.344;2023-04-12T03:08:17;94399.59;;;10.48;56.92
64668;BME280;51077;42.716;23.344;2023-04-12T03:10:42;94400.56;;;10.51;57.02
64668;BME280;51077;42.716;23.344;2023-04-12T03:13:08;94401.47;;;10.53;56.87
64668;BME280;51077;42.716;23.344;2023-04-12T03:15:33;94400.41;;;10.56;56.88
64668;BME280;51077;42.716;23.344;2023-04-12T03:17:59;94402.84;;;10.60;56.72
64668;BME280;51077;42.716;23.344;2023-04-12T03:20:24;94402.31;;;10.62;57.04
64668;BME280;51077;42.716;23.344;2023-04-12T03:22:50;94398.16;;;10.68;57.49
64668;BME280;51077;42.716;23.344;2023-04-12T03:25:16;94404.59;;;10.71;57.98
64668;BME280;51077;42.716;23.344;2023-04-12T03:27:44;94409.03;;;10.74;58.13
64668;BME280;51077;42.716;23.344;2023-04-12T03:30:10;94395.69;;;10.78;59.26
64668;BME280;51077;42.716;23.344;2023-04-12T03:32:39;94404.56;;;10.84;59.59
64668;BME280;51077;42.716;23.344;2023-04-12T03:35:06;94404.03;;;10.86;59.58
64668;BME280;51077;42.716;23.344;2023-04-12T03:37:33;94408.44;;;10.89;59.58
64668;BME280;51077;42.716;23.344;2023-04-12T03:39:59;94405.16;;;10.90;59.52
64668;BME280;51077;42.716;23.344;2023-04-12T03:42:25;94403.16;;;10.91;59.00
64668;BME280;51077;42.716;23.344;2023-04-12T03:44:51;94408.09;;;10.92;58.99
64668;BME280;51077;42.716;23.344;2023-04-12T03:47:17;94415.06;;;10.93;58.81
64668;BME280;51077;42.716;23.344;2023-04-12T03:49:43;94424.78;;;10.94;58.85
64668;BME280;51077;42.716;23.344;2023-04-12T03:52:08;94419.84;;;10.93;58.70
64668;BME280;51077;42.716;23.344;2023-04-12T03:54:34;94418.34;;;10.92;58.75
64668;BME280;51077;42.716;23.344;2023-04-12T03:56:59;94422.59;;;10.93;58.34
64668;BME280;51077;42.716;23.344;2023-04-12T03:59:26;94421.31;;;10.94;58.31
64668;BME280;51077;42.716;23.344;2023-04-12T04:01:52;94417.81;;;10.93;58.27
64668;BME280;51077;42.716;23.344;2023-04-12T04:04:17;94427.53;;;10.94;57.89
64668;BME280;51077;42.716;23.344;2023-04-12T04:06:43;94414.00;;;10.96;57.82
64668;BME280;51077;42.716;23.344;2023-04-12T04:09:08;94424.25;;;10.96;57.75
64668;BME280;51077;42.716;23.344;2023-04-12T04:11:34;94416.53;;;10.94;57.75
64668;BME280;51077;42.716;23.344;2023-04-12T04:13:59;94418.75;;;10.96;57.58
64668;BME280;51077;42.716;23.344;2023-04-12T04:16:25;94427.53;;;10.94;57.49
64668;BME280;51077;42.716;23.344;2023-04-12T04:18:51;94441.44;;;10.96;57.60
64668;BME280;51077;42.716;23.344;2023-04-12T04:21:16;94449.69;;;10.96;57.39
64668;BME280;51077;42.716;23.344;2023-04-12T04:23:41;94450.97;;;10.95;57.25
64668;BME280;51077;42.716;23.344;2023-04-12T04:26:11;94445.47;;;10.95;57.34
64668;BME280;51077;42.716;23.344;2023-04-12T04:28:39;94463.41;;;10.96;57.21
64668;BME280;51077;42.716;23.344;2023-04-12T04:31:10;94464.38;;;10.99;57.18
64668;BME280;51077;42.716;23.344;2023-04-12T04:33:35;94463.81;;;11.00;57.23
64668;BME280;51077;42.716;23.344;2023-04-12T04:36:02;94468.78;;;11.02;57.01
64668;BME280;51077;42.716;23.344;2023-04-12T04:38:32;94461.47;;;11.04;56.87
64668;BME280;51077;42.716;23.344;2023-04-12T04:40:59;94473.41;;;11.07;56.78
64668;BME280;51077;42.716;23.344;2023-04-12T04:43:26;94474.16;;;11.07;56.70
64668;BME280;51077;42.716;23.344;2023-04-12T04:45:55;94481.09;;;11.08;56.71
64668;BME280;51077;42.716;23.344;2023-04-12T04:48:21;94476.34;;;11.09;56.64
64668;BME280;51077;42.716;23.344;2023-04-12T04:50:46;94477.63;;;11.08;56.64
64668;BME280;51077;42.716;23.344;2023-04-12T04:53:12;94483.34;;;11.10;56.60
64668;BME280;51077;42.716;23.344;2023-04-12T04:55:38;94480.25;;;11.14;56.26
64668;BME280;51077;42.716;23.344;2023-04-12T04:58:06;94479.91;;;11.17;56.13
64668;BME280;51077;42.716;23.344;2023-04-12T05:00:31;94487.09;;;11.20;56.32
64668;BME280;51077;42.716;23.344;2023-04-12T05:02:59;94488.78;;;11.23;55.87
64668;BME280;51077;42.716;23.344;2023-04-12T05:05:24;94487.50;;;11.24;55.78
64668;BME280;51077;42.716;23.344;2023-04-12T05:07:50;94486.22;;;11.25;55.57
64668;BME280;51077;42.716;23.344;2023-04-12T05:10:15;94499.41;;;11.27;55.38
64668;BME280;51077;42.716;23.344;2023-04-12T05:12:41;94492.66;;;11.28;55.16
64668;BME280;51077;42.716;23.344;2023-04-12T05:15:06;94503.44;;;11.26;55.24
64668;BME280;51077;42.716;23.344;2023-04-12T05:17:32;94503.97;;;11.24;55.08
64668;BME280;51077;42.716;23.344;2023-04-12T05:19:59;94499.22;;;11.25;55.12
64668;BME280;51077;42.716;23.344;2023-04-12T05:22:24;94494.47;;;11.25;54.81
64668;BME280;51077;42.716;23.344;2023-04-12T05:24:50;94506.91;;;11.26;54.58
64668;BME280;51077;42.716;23.344;2023-04-12T05:27:15;94500.56;;;11.31;54.39
64668;BME280;51077;42.716;23.344;2023-04-12T05:29:42;94497.47;;;11.35;54.40
64668;BME280;51077;42.716;23.344;2023-04-12T05:32:07;94503.38;;;11.39;54.27
64668;BME280;51077;42.716;23.344;2023-04-12T05:34:32;94507.06;;;11.42;53.90
64668;BME280;51077;42.716;23.344;2023-04-12T05:36:58;94505.25;;;11.44;53.95
64668;BME280;51077;42.716;23.344;2023-04-12T05:39:25;94510.41;;;11.48;53.90
64668;BME280;51077;42.716;23.344;2023-04-12T05:41:50;94512.84;;;11.51;53.71
64668;BME280;51077;42.716;23.344;2023-04-12T05:44:16;94505.53;;;11.54;53.58
64668;BME280;51077;42.716;23.344;2023-04-12T05:46:41;94506.47;;;11.56;53.71
64668;BME280;51077;42.716;23.344;2023-04-12T05:49:06;94505.94;;;11.58;53.50
64668;BME280;51077;42.716;23.344;2023-04-12T05:51:32;94512.34;;;11.61;53.42
64668;BME280;51077;42.716;23.344;2023-04-12T05:53:58;94516.78;;;11.64;52.98
64668;BME280;51077;42.716;23.344;2023-04-12T05:56:23;94508.72;;;11.66;53.16
64668;BME280;51077;42.716;23.344;2023-04-12T05:58:48;94511.69;;;11.68;52.87
64668;BME280;51077;42.716;23.344;2023-04-12T06:01:15;94505.09;;;11.71;52.73
64668;BME280;51077;42.716;23.344;2023-04-12T06:03:41;94498.34;;;11.72;52.71
64668;BME280;51077;42.716;23.344;2023-04-12T06:06:07;94517.25;;;11.75;52.50
64668;BME280;51077;42.716;23.344;2023-04-12T06:08:34;94520.75;;;11.76;52.18
64668;BME280;51077;42.716;23.344;2023-04-12T06:11:00;94529.00;;;11.76;52.03
64668;BME280;51077;42.716;23.344;2023-04-12T06:13:25;94538.72;;;11.77;51.75
64668;BME280;51077;42.716;23.344;2023-04-12T06:15:51;94536.16;;;11.79;51.71
64668;BME280;51077;42.716;23.344;2023-04-12T06:18:17;94534.13;;;11.79;51.54
64668;BME280;51077;42.716;23.344;2023-04-12T06:20:42;94543.88;;;11.80;51.36
64668;BME280;51077;42.716;23.344;2023-04-12T06:23:08;94531.94;;;11.78;51.27
64668;BME280;51077;42.716;23.344;2023-04-12T06:25:33;94542.94;;;11.78;51.10
64668;BME280;51077;42.716;23.344;2023-04-12T06:27:59;94540.41;;;11.80;51.23
64668;BME280;51077;42.716;23.344;2023-04-12T06:30:24;94539.84;;;11.81;51.21
64668;BME280;51077;42.716;23.344;2023-04-12T06:32:50;94545.13;;;11.79;50.94
64668;BME280;51077;42.716;23.344;2023-04-12T06:35:15;94540.56;;;11.82;51.06
64668;BME280;51077;42.716;23.344;2023-04-12T06:37:41;94538.03;;;11.84;50.90
64668;BME280;51077;42.716;23.344;2023-04-12T06:40:07;94545.97;;;11.88;50.81
64668;BME280;51077;42.716;23.344;2023-04-12T06:42:33;94546.91;;;11.90;50.76
64668;BME280;51077;42.716;23.344;2023-04-12T06:44:58;94529.34;;;11.93;50.70
64668;BME280;51077;42.716;23.344;2023-04-12T06:47:24;94534.47;;;11.97;50.43
64668;BME280;51077;42.716;23.344;2023-04-12T06:49:49;94532.84;;;12.01;50.41
64668;BME280;51077;42.716;23.344;2023-04-12T06:52:17;94527.03;;;12.05;50.45
64668;BME280;51077;42.716;23.344;2023-04-12T06:54:43;94518.44;;;12.08;50.06
64668;BME280;51077;42.716;23.344;2023-04-12T06:57:09;94510.56;;;12.13;50.02
64668;BME280;51077;42.716;23.344;2023-04-12T06:59:37;94522.16;;;12.19;49.77
64668;BME280;51077;42.716;23.344;2023-04-12T07:02:03;94514.50;;;12.25;49.22
64668;BME280;51077;42.716;23.344;2023-04-12T07:04:28;94518.28;;;12.43;49.18
64668;BME280;51077;42.716;23.344;2023-04-12T07:06:53;94515.09;;;12.67;48.71
64668;BME280;51077;42.716;23.344;2023-04-12T07:09:19;94518.34;;;12.94;48.48
64668;BME280;51077;42.716;23.344;2023-04-12T07:11:44;94497.50;;;13.29;47.64
64668;BME280;51077;42.716;23.344;2023-04-12T07:14:10;94508.38;;;13.66;47.16
64668;BME280;51077;42.716;23.344;2023-04-12T07:16:35;94515.38;;;14.05;46.46
64668;BME280;51077;42.716;23.344;2023-04-12T07:19:00;94501.53;;;14.43;45.49
64668;BME280;51077;42.716;23.344;2023-04-12T07:21:26;94499.22;;;14.80;44.89
64668;BME280;51077;42.716;23.344;2023-04-12T07:23:51;94484.13;;;15.14;43.90
64668;BME280;51077;42.716;23.344;2023-04-12T07:26:17;94487.53;;;15.37;43.10
64668;BME280;51077;42.716;23.344;2023-04-12T07:28:46;94494.97;;;15.52;42.64
64668;BME280;51077;42.716;23.344;2023-04-12T07:31:11;94503.38;;;15.62;42.21
64668;BME280;51077;42.716;23.344;2023-04-12T07:33:36;94503.19;;;15.67;42.02
64668;BME280;51077;42.716;23.344;2023-04-12T07:36:03;94506.47;;;15.73;41.72
64668;BME280;51077;42.716;23.344;2023-04-12T07:38:29;94509.72;;;15.79;41.67
64668;BME280;51077;42.716;23.344;2023-04-12T07:40:59;94516.00;;;15.80;41.36
64668;BME280;51077;42.716;23.344;2023-04-12T07:43:24;94512.09;;;15.83;41.23
64668;BME280;51077;42.716;23.344;2023-04-12T07:45:53;94490.75;;;16.01;41.04
64668;BME280;51077;42.716;23.344;2023-04-12T07:48:19;94500.13;;;16.23;40.74
64668;BME280;51077;42.716;23.344;2023-04-12T07:50:44;94495.78;;;16.54;40.11
64668;BME280;51077;42.716;23.344;2023-04-12T07:53:37;94486.31;;;16.92;39.41
64668;BME280;51077;42.716;23.344;2023-04-12T07:56:03;94489.28;;;17.21;38.36
64668;BME280;51077;42.716;23.344;2023-04-12T07:58:33;94478.78;;;17.56;37.93
64668;BME280;51077;42.716;23.344;2023-04-12T08:00:59;94469.56;;;17.81;37.13
64668;BME280;51077;42.716;23.344;2023-04-12T08:03:24;94466.28;;;18.12;36.59
64668;BME280;51077;42.716;23.344;2023-04-12T08:05:51;94469.25;;;18.33;36.14
64668;BME280;51077;42.716;23.344;2023-04-12T08:08:21;94465.75;;;18.42;35.78
64668;BME280;51077;42.716;23.344;2023-04-12T08:10:47;94468.34;;;18.40;35.56
64668;BME280;51077;42.716;23.344;2023-04-12T08:13:13;94457.69;;;18.37;35.53
64668;BME280;51077;42.716;23.344;2023-04-12T08:15:39;94453.00;;;18.29;35.43
64668;BME280;51077;42.716;23.344;2023-04-12T08:18:05;94463.53;;;18.21;35.47
64668;BME280;51077;42.716;23.344;2023-04-12T08:20:31;94473.47;;;18.24;35.30
64668;BME280;51077;42.716;23.344;2023-04-12T08:23:00;94464.41;;;18.43;34.81
64668;BME280;51077;42.716;23.344;2023-04-12T08:25:25;94468.97;;;18.68;34.35
64668;BME280;51077;42.716;23.344;2023-04-12T08:27:51;94453.31;;;18.92;33.67
64668;BME280;51077;42.716;23.344;2023-04-12T08:30:17;94453.84;;;19.19;33.34
64668;BME280;51077;42.716;23.344;2023-04-12T08:32:43;94459.94;;;19.47;32.37
64668;BME280;51077;42.716;23.344;2023-04-12T08:35:08;94444.31;;;19.73;31.96
64668;BME280;51077;42.716;23.344;2023-04-12T08:37:34;94457.97;;;20.00;31.21
64668;BME280;51077;42.716;23.344;2023-04-12T08:40:02;94458.72;;;20.22;30.78
64668;BME280;51077;42.716;23.344;2023-04-12T08:42:30;94458.72;;;20.43;30.42
64668;BME280;51077;42.716;23.344;2023-04-12T08:44:56;94468.66;;;20.68;30.16
64668;BME280;51077;42.716;23.344;2023-04-12T08:47:22;94482.84;;;20.93;29.53
64668;BME280;51077;42.716;23.344;2023-04-12T08:49:48;94469.81;;;21.19;29.06
64668;BME280;51077;42.716;23.344;2023-04-12T08:52:13;94483.38;;;21.35;28.01
64668;BME280;51077;42.716;23.344;2023-04-12T08:54:39;94477.31;;;21.50;28.10
64668;BME280;51077;42.716;23.344;2023-04-12T08:57:06;94470.81;;;21.69;27.92
64668;BME280;51077;42.716;23.344;2023-04-12T08:59:36;94466.31;;;21.87;27.22
64668;BME280;51077;42.716;23.344;2023-04-12T09:02:02;94464.59;;;22.05;26.93
64668;BME280;51077;42.716;23.344;2023-04-12T09:04:27;94477.50;;;22.22;26.53
64668;BME280;51077;42.716;23.344;2023-04-12T09:06:54;94471.03;;;22.31;26.43
64668;BME280;51077;42.716;23.344;2023-04-12T09:09:39;94453.28;;;22.39;25.97
64668;BME280;51077;42.716;23.344;2023-04-12T09:12:08;94441.22;;;22.48;25.77
64668;BME280;51077;42.716;23.344;2023-04-12T09:14:34;94457.97;;;22.60;25.55
64668;BME280;51077;42.716;23.344;2023-04-12T09:17:00;94447.84;;;22.66;25.53
64668;BME280;51077;42.716;23.344;2023-04-12T09:19:33;94438.56;;;22.75;25.02
64668;BME280;51077;42.716;23.344;2023-04-12T09:21:59;94431.22;;;22.94;25.11
64668;BME280;51077;42.716;23.344;2023-04-12T09:24:24;94438.84;;;23.05;24.79
64668;BME280;51077;42.716;23.344;2023-04-12T09:27:03;94441.38;;;23.13;24.56
64668;BME280;51077;42.716;23.344;2023-04-12T09:29:32;94443.75;;;22.93;24.46
64668;BME280;51077;42.716;23.344;2023-04-12T09:32:06;94431.25;;;22.82;24.92
64668;BME280;51077;42.716;23.344;2023-04-12T09:34:33;94441.34;;;22.87;24.57
64668;BME280;51077;42.716;23.344;2023-04-12T09:37:15;94410.53;;;22.99;24.22
64668;BME280;51077;42.716;23.344;2023-04-12T09:39:42;94414.91;;;23.16;24.04
64668;BME280;51077;42.716;23.344;2023-04-12T09:42:11;94414.66;;;23.37;24.04
64668;BME280;51077;42.716;23.344;2023-04-12T09:44:38;94407.16;;;23.67;23.82
64668;BME280;51077;42.716;23.344;2023-04-12T09:47:04;94403.25;;;24.00;23.33
64668;BME280;51077;42.716;23.344;2023-04-12T09:49:41;94390.03;;;24.30;22.91
64668;BME280;51077;42.716;23.344;2023-04-12T09:52:11;94403.72;;;24.51;22.62
64668;BME280;51077;42.716;23.344;2023-04-12T09:54:44;94391.16;;;24.82;22.33
64668;BME280;51077;42.716;23.344;2023-04-12T09:57:11;94383.59;;;25.00;22.02
64668;BME280;51077;42.716;23.344;2023-04-12T09:59:38;94384.91;;;25.29;21.88
64668;BME280;51077;42.716;23.344;2023-04-12T10:02:08;94391.00;;;25.39;21.71
64668;BME280;51077;42.716;23.344;2023-04-12T10:04:36;94372.31;;;25.46;20.92
64668;BME280;51077;42.716;23.344;2023-04-12T10:07:04;94367.00;;;25.52;21.27
64668;BME280;51077;42.716;23.344;2023-04-12T10:09:30;94365.44;;;25.65;21.05
64668;BME280;51077;42.716;23.344;2023-04-12T10:11:56;94376.78;;;25.83;20.86
64668;BME280;51077;42.716;23.344;2023-04-12T10:14:27;94365.00;;;25.86;20.43
64668;BME280;51077;42.716;23.344;2023-04-12T10:16:56;94354.28;;;25.67;20.47
64668;BME280;51077;42.716;23.344;2023-04-12T10:19:24;94372.53;;;25.34;20.60
64668;BME280;51077;42.716;23.344;2023-04-12T10:21:50;94370.16;;;24.99;20.68
64668;BME280;51077;42.716;23.344;2023-04-12T10:24:16;94350.91;;;24.62;20.54
64668;BME280;51077;42.716;23.344;2023-04-12T10:26:42;94356.06;;;24.24;20.93
64668;BME280;51077;42.716;23.344;2023-04-12T10:29:25;94370.53;;;24.04;20.68
64668;BME280;51077;42.716;23.344;2023-04-12T10:32:16;94356.00;;;24.08;20.58
64668;BME280;51077;42.716;23.344;2023-04-12T10:34:43;94349.84;;;24.39;20.05
64668;BME280;51077;42.716;23.344;2023-04-12T10:37:08;94352.00;;;24.70;19.94
64668;BME280;51077;42.716;23.344;2023-04-12T10:39:39;94347.28;;;25.04;19.58
64668;BME280;51077;42.716;23.344;2023-04-12T10:44:39;94339.41;;;25.64;19.20
64668;BME280;51077;42.716;23.344;2023-04-12T10:47:05;94345.94;;;25.85;18.61
64668;BME280;51077;42.716;23.344;2023-04-12T10:49:30;94336.88;;;26.20;18.40
64668;BME280;51077;42.716;23.344;2023-04-12T10:56:50;94327.69;;;26.53;18.07
64668;BME280;51077;42.716;23.344;2023-04-12T10:59:16;94336.38;;;26.77;17.57
64668;BME280;51077;42.716;23.344;2023-04-12T11:04:27;94320.63;;;27.07;17.34
64668;BME280;51077;42.716;23.344;2023-04-12T11:14:27;94328.31;;;27.63;16.90
64668;BME280;51077;42.716;23.344;2023-04-12T11:19:33;94320.59;;;27.63;16.13
64668;BME280;51077;42.716;23.344;2023-04-12T11:21:59;94321.75;;;27.76;16.11
64668;BME280;51077;42.716;23.344;2023-04-12T11:24:26;94320.53;;;27.81;16.04
64668;BME280;51077;42.716;23.344;2023-04-12T11:26:52;94317.34;;;27.91;16.01
64668;BME280;51077;42.716;23.344;2023-04-12T11:29:27;94284.16;;;27.89;16.00
64668;BME280;51077;42.716;23.344;2023-04-12T11:31:53;94318.34;;;27.99;15.47
64668;BME280;51077;42.716;23.344;2023-04-12T11:34:21;94317.31;;;28.11;15.65
64668;BME280;51077;42.716;23.344;2023-04-12T11:36:53;94319.34;;;28.08;15.64
64668;BME280;51077;42.716;23.344;2023-04-12T11:39:20;94302.88;;;28.22;15.67
64668;BME280;51077;42.716;23.344;2023-04-12T11:41:47;94293.09;;;28.25;15.55
64668;BME280;51077;42.716;23.344;2023-04-12T11:44:13;94307.38;;;28.51;15.46
64668;BME280;51077;42.716;23.344;2023-04-12T11:46:43;94326.75;;;28.39;15.54
64668;BME280;51077;42.716;23.344;2023-04-12T11:49:09;94308.69;;;28.48;15.42
64668;BME280;51077;42.716;23.344;2023-04-12T11:51:34;94304.94;;;28.42;15.32
64668;BME280;51077;42.716;23.344;2023-04-12T11:54:00;94316.09;;;28.38;15.26
64668;BME280;51077;42.716;23.344;2023-04-12T11:56:27;94306.66;;;28.51;15.19
64668;BME280;51077;42.716;23.344;2023-04-12T11:58:53;94308.28;;;28.58;15.08
64668;BME280;51077;42.716;23.344;2023-04-12T12:01:19;94314.66;;;28.59;15.05
64668;BME280;51077;42.716;23.344;2023-04-12T12:03:46;94298.97;;;28.53;15.06
64668;BME280;51077;42.716;23.344;2023-04-12T12:06:12;94319.41;;;28.52;15.18
64668;BME280;51077;42.716;23.344;2023-04-12T12:08:39;94305.16;;;28.48;14.78
64668;BME280;51077;42.716;23.344;2023-04-12T12:11:04;94314.19;;;28.66;14.96
64668;BME280;51077;42.716;23.344;2023-04-12T12:13:54;94303.94;;;28.77;14.93
64668;BME280;51077;42.716;23.344;2023-04-12T12:16:25;94302.88;;;28.88;14.95
64668;BME280;51077;42.716;23.344;2023-04-12T12:18:51;94312.19;;;28.93;14.92
64668;BME280;51077;42.716;23.344;2023-04-12T12:21:17;94326.16;;;28.65;14.93
64668;BME280;51077;42.716;23.344;2023-04-12T12:23:44;94320.00;;;28.48;15.21
64668;BME280;51077;42.716;23.344;2023-04-12T12:26:18;94316.34;;;28.68;14.87
64668;BME280;51077;42.716;23.344;2023-04-12T12:28:51;94320.03;;;28.72;14.84
64668;BME280;51077;42.716;23.344;2023-04-12T12:31:24;94319.31;;;28.72;14.92
64668;BME280;51077;42.716;23.344;2023-04-12T12:33:56;94302.06;;;28.62;14.95
64668;BME280;51077;42.716;23.344;2023-04-12T12:36:35;94299.81;;;28.58;14.75
64668;BME280;51077;42.716;23.344;2023-04-12T12:39:07;94313.72;;;28.30;14.87
64668;BME280;51077;42.716;23.344;2023-04-12T12:41:34;94302.66;;;28.36;14.88
64668;BME280;51077;42.716;23.344;2023-04-12T12:44:03;94306.50;;;28.25;14.98
64668;BME280;51077;42.716;23.344;2023-04-12T12:46:29;94316.25;;;28.42;14.87
64668;BME280;51077;42.716;23.344;2023-04-12T12:48:54;94307.72;;;28.40;14.81
64668;BME280;51077;42.716;23.344;2023-04-12T12:51:19;94318.00;;;28.31;14.82
64668;BME280;51077;42.716;23.344;2023-04-12T12:53:45;94314.94;;;28.25;15.05
64668;BME280;51077;42.716;23.344;2023-04-12T12:56:12;94315.00;;;28.05;14.90
64668;BME280;51077;42.716;23.344;2023-04-12T12:58:40;94306.69;;;28.09;14.97
64668;BME280;51077;42.716;23.344;2023-04-12T13:01:06;94298.63;;;27.99;15.02
64668;BME280;51077;42.716;23.344;2023-04-12T13:03:32;94311.91;;;27.77;15.21
64668;BME280;51077;42.716;23.344;2023-04-12T13:05:58;94307.78;;;27.60;14.86
64668;BME280;51077;42.716;23.344;2023-04-12T13:08:27;94306.91;;;27.55;15.32
64668;BME280;51077;42.716;23.344;2023-04-12T13:10:53;94315.38;;;27.36;14.98
64668;BME280;51077;42.716;23.344;2023-04-12T13:13:19;94312.81;;;27.24;15.52
64668;BME280;51077;42.716;23.344;2023-04-12T13:15:45;94303.88;;;27.29;15.25
64668;BME280;51077;42.716;23.344;2023-04-12T13:18:15;94302.84;;;26.83;15.68
64668;BME280;51077;42.716;23.344;2023-04-12T13:20:41;94295.13;;;26.66;16.32
64668;BME280;51077;42.716;23.344;2023-04-12T13:23:09;94302.19;;;26.31;16.23